createdAt,value
2023-03-05T00:01:25.200Z,84.24
2023-03-05T00:03:53.974Z,84.04
2023-03-05T00:06:21.886Z,84.11
2023-03-05T00:08:49.154Z,84.11
2023-03-05T00:11:16.523Z,84.18
2023-03-05T00:13:43.235Z,83.79
2023-03-05T00:16:12.953Z,83.81
2023-03-05T00:18:39.846Z,83.71
2023-03-05T00:21:18.986Z,83.95
2023-03-05T00:23:45.590Z,84.35
2023-03-05T00:26:12.087Z,84.01
2023-03-05T00:28:38.936Z,84.84
2023-03-05T00:31:05.923Z,84.87
2023-03-05T00:33:32.603Z,84.43
2023-03-05T00:36:01.685Z,84.84
2023-03-05T00:38:28.323Z,84.01
2023-03-05T00:40:54.800Z,84.96
2023-03-05T00:43:21.274Z,84.43
2023-03-05T00:45:48.025Z,84.51
2023-03-05T00:48:14.545Z,84.88
2023-03-05T00:50:41.553Z,84.80
2023-03-05T00:53:08.327Z,85.18
2023-03-05T00:55:36.146Z,85.43
2023-03-05T00:58:03.227Z,85.30
2023-03-05T01:00:29.742Z,85.18
2023-03-05T01:02:56.187Z,85.18
2023-03-05T01:05:22.707Z,85.33
2023-03-05T01:07:53.595Z,85.35
2023-03-05T01:10:21.284Z,85.19
2023-03-05T01:12:47.687Z,85.29
2023-03-05T01:15:14.755Z,85.12
2023-03-05T01:17:41.321Z,85.11
2023-03-05T01:20:08.628Z,84.89
2023-03-05T01:22:35.092Z,85.50
2023-03-05T01:25:01.597Z,84.88
2023-03-05T01:27:28.577Z,85.32
2023-03-05T01:30:00.831Z,85.11
2023-03-05T01:32:27.484Z,84.95
2023-03-05T01:34:54.079Z,85.74
2023-03-05T01:37:20.555Z,86.01
2023-03-05T01:39:47.024Z,86.19
2023-03-05T01:42:13.462Z,85.71
2023-03-05T01:44:39.906Z,86.28
2023-03-05T01:47:06.497Z,86.98
2023-03-05T01:49:38.710Z,87.09
2023-03-05T01:52:19.866Z,86.76
2023-03-05T01:54:53.111Z,87.00
2023-03-05T01:57:25.930Z,86.37
2023-03-05T01:59:57.055Z,86.81
2023-03-05T02:02:24.268Z,86.68
2023-03-05T02:04:55.351Z,87.27
2023-03-05T02:07:23.377Z,86.97
2023-03-05T02:09:49.831Z,87.45
2023-03-05T02:12:16.829Z,87.50
2023-03-05T02:14:46.629Z,87.75
2023-03-05T02:17:13.350Z,87.53
2023-03-05T02:19:51.780Z,87.87
2023-03-05T02:22:20.226Z,88.05
2023-03-05T02:24:46.758Z,87.68
2023-03-05T02:27:14.950Z,87.78
2023-03-05T02:29:45.573Z,88.28
2023-03-05T02:32:13.011Z,88.73
2023-03-05T02:34:39.860Z,87.82
2023-03-05T02:37:09.164Z,87.72
2023-03-05T02:39:36.034Z,88.60
2023-03-05T02:42:02.528Z,88.03
2023-03-05T02:44:29.371Z,88.63
2023-03-05T02:46:56.048Z,88.71
2023-03-05T02:49:24.437Z,88.71
2023-03-05T02:51:50.991Z,88.40
2023-03-05T02:54:17.828Z,87.47
2023-03-05T02:56:44.700Z,87.62
2023-03-05T02:59:11.231Z,87.87
2023-03-05T03:01:37.733Z,88.27
2023-03-05T03:04:06.795Z,88.14
2023-03-05T03:06:33.525Z,88.54
2023-03-05T03:09:00.316Z,89.28
2023-03-05T03:11:27.176Z,89.18
2023-03-05T03:13:53.639Z,89.48
2023-03-05T03:16:20.196Z,89.55
2023-03-05T03:18:48.743Z,89.46
2023-03-05T03:21:22.048Z,89.36
2023-03-05T03:23:48.560Z,89.34
2023-03-05T03:26:15.052Z,89.34
2023-03-05T03:28:44.700Z,89.69
2023-03-05T03:31:11.873Z,90.46
2023-03-05T03:33:38.642Z,90.41
2023-03-05T03:36:06.218Z,91.10
2023-03-05T03:38:32.735Z,91.49
2023-03-05T03:41:00.510Z,91.46
2023-03-05T03:43:27.059Z,91.72
2023-03-05T03:45:53.519Z,91.65
2023-03-05T03:48:20.032Z,91.47
2023-03-05T03:50:46.574Z,91.98
2023-03-05T03:53:14.347Z,91.79
2023-03-05T03:55:42.856Z,91.79
2023-03-05T03:58:09.751Z,92.27
2023-03-05T04:00:36.841Z,91.79
2023-03-05T04:03:03.605Z,92.40
2023-03-05T04:05:30.205Z,92.43
2023-03-05T04:07:58.387Z,92.41
2023-03-05T04:10:25.129Z,92.57
2023-03-05T04:12:51.564Z,92.70
2023-03-05T04:15:18.130Z,92.48
2023-03-05T04:17:44.619Z,92.61
2023-03-05T04:20:11.760Z,92.20
2023-03-05T04:22:38.189Z,91.74
2023-03-05T04:25:08.405Z,91.91
2023-03-05T04:27:36.710Z,91.85
2023-03-05T04:30:04.479Z,91.85
2023-03-05T04:32:30.991Z,92.50
2023-03-05T04:34:57.655Z,92.26
2023-03-05T04:37:26.156Z,91.78
2023-03-05T04:39:53.345Z,91.34
2023-03-05T04:42:21.106Z,92.08
2023-03-05T04:44:49.537Z,91.29
2023-03-05T04:47:17.189Z,91.77
2023-03-05T04:49:44.095Z,91.82
2023-03-05T04:52:11.997Z,92.44
2023-03-05T04:54:38.478Z,91.97
2023-03-05T04:57:05.085Z,91.87
2023-03-05T04:59:31.802Z,92.02
2023-03-05T05:01:58.292Z,92.00
2023-03-05T05:04:24.859Z,91.97
2023-03-05T05:06:55.902Z,91.73
2023-03-05T05:09:22.596Z,91.99
2023-03-05T05:11:49.072Z,91.99
2023-03-05T05:14:15.650Z,92.25
2023-03-05T05:16:42.283Z,92.16
2023-03-05T05:19:08.771Z,92.46
2023-03-05T05:21:35.280Z,92.46
2023-03-05T05:24:01.732Z,92.78
2023-03-05T05:26:28.170Z,92.42
2023-03-05T05:28:54.584Z,92.90
2023-03-05T05:31:21.146Z,92.51
2023-03-05T05:33:49.785Z,93.41
2023-03-05T05:36:19.198Z,92.99
2023-03-05T05:38:45.982Z,92.81
2023-03-05T05:41:14.584Z,93.19
2023-03-05T05:43:41.521Z,92.84
2023-03-05T05:46:11.360Z,93.16
2023-03-05T05:48:38.402Z,92.67
2023-03-05T05:51:07.521Z,92.29
2023-03-05T05:53:34.285Z,92.64
2023-03-05T05:56:00.945Z,91.88
2023-03-05T05:58:27.416Z,92.09
2023-03-05T06:00:53.847Z,91.97
2023-03-05T06:03:20.300Z,91.45
2023-03-05T06:05:47.633Z,91.74
2023-03-05T06:08:14.103Z,91.58
2023-03-05T06:10:40.549Z,92.05
2023-03-05T06:13:06.978Z,92.16
2023-03-05T06:15:33.454Z,92.37
2023-03-05T06:18:00.360Z,91.74
2023-03-05T06:20:28.354Z,91.96
2023-03-05T06:22:55.485Z,92.18
2023-03-05T06:25:22.073Z,92.46
2023-03-05T06:27:48.554Z,92.81
2023-03-05T06:30:15.097Z,92.50
2023-03-05T06:32:41.602Z,92.87
2023-03-05T06:35:09.056Z,92.86
2023-03-05T06:37:35.510Z,93.30
2023-03-05T06:40:02.079Z,93.12
2023-03-05T06:42:28.529Z,93.43
2023-03-05T06:45:00.555Z,93.11
2023-03-05T06:47:27.144Z,93.76
2023-03-05T06:49:53.565Z,93.88
2023-03-05T06:52:20.077Z,93.59
2023-03-05T06:54:49.150Z,93.78
2023-03-05T06:57:15.634Z,94.14
2023-03-05T06:59:42.094Z,94.30
2023-03-05T07:02:12.166Z,94.36
2023-03-05T07:04:38.659Z,94.36
2023-03-05T07:07:05.143Z,94.24
2023-03-05T07:09:31.767Z,93.75
2023-03-05T07:11:58.192Z,93.43
2023-03-05T07:14:24.710Z,92.62
2023-03-05T07:16:51.301Z,92.64
2023-03-05T07:19:17.756Z,92.63
2023-03-05T07:21:44.348Z,93.03
2023-03-05T07:24:12.482Z,92.26
2023-03-05T07:26:49.070Z,91.67
2023-03-05T07:29:15.712Z,91.88
2023-03-05T07:31:42.148Z,90.60
2023-03-05T07:34:09.763Z,90.52
2023-03-05T07:36:37.982Z,91.13
2023-03-05T07:39:05.448Z,91.54
2023-03-05T07:41:32.202Z,92.30
2023-03-05T07:43:58.642Z,91.38
2023-03-05T07:46:28.197Z,91.96
2023-03-05T07:48:55.554Z,91.94
2023-03-05T07:51:23.473Z,92.39
2023-03-05T07:53:51.962Z,92.40
2023-03-05T07:56:36.580Z,92.04
2023-03-05T07:59:06.645Z,92.11
2023-03-05T08:01:33.816Z,92.37
2023-03-05T08:04:00.465Z,92.51
2023-03-05T08:06:27.190Z,91.82
2023-03-05T08:08:53.617Z,91.51
2023-03-05T08:11:20.077Z,90.45
2023-03-05T08:13:46.899Z,90.73
2023-03-05T08:16:15.933Z,90.60
2023-03-05T08:18:43.031Z,89.90
2023-03-05T08:21:33.820Z,90.02
2023-03-05T08:24:02.074Z,90.29
2023-03-05T08:26:30.162Z,90.03
2023-03-05T08:28:58.053Z,89.28
2023-03-05T08:31:26.429Z,89.33
2023-03-05T08:33:54.981Z,88.20
2023-03-05T08:36:22.037Z,88.82
2023-03-05T08:38:48.840Z,88.11
2023-03-05T08:41:16.898Z,87.91
2023-03-05T08:43:43.737Z,87.34
2023-03-05T08:46:12.226Z,87.94
2023-03-05T08:48:39.084Z,87.50
2023-03-05T08:51:10.451Z,85.66
2023-03-05T08:53:36.968Z,85.90
2023-03-05T08:56:03.805Z,85.59
2023-03-05T08:58:30.492Z,84.66
2023-03-05T09:00:57.034Z,84.38
2023-03-05T09:03:23.562Z,84.82
2023-03-05T09:05:51.427Z,84.18
2023-03-05T09:08:18.123Z,82.94
2023-03-05T09:10:45.899Z,81.99
2023-03-05T09:13:12.885Z,81.51
2023-03-05T09:15:39.509Z,79.98
2023-03-05T09:18:06.525Z,79.42
2023-03-05T09:20:33.882Z,79.28
2023-03-05T09:23:00.341Z,78.03
2023-03-05T09:25:27.136Z,77.89
2023-03-05T09:27:54.508Z,78.67
2023-03-05T09:30:21.140Z,79.33
2023-03-05T09:32:51.870Z,79.39
2023-03-05T09:35:18.391Z,79.32
2023-03-05T09:37:44.851Z,79.36
2023-03-05T09:40:17.490Z,77.13
2023-03-05T09:43:26.019Z,77.22
2023-03-05T09:46:13.624Z,77.08
2023-03-05T09:48:53.270Z,76.54
2023-03-05T09:51:29.512Z,75.57
2023-03-05T09:54:03.263Z,75.14
2023-03-05T09:56:34.962Z,75.15
2023-03-05T09:59:13.495Z,75.34
2023-03-05T10:01:43.779Z,74.73
2023-03-05T10:04:25.744Z,73.79
2023-03-05T10:07:08.909Z,72.92
2023-03-05T10:09:57.616Z,70.76
2023-03-05T10:12:32.736Z,68.82
2023-03-05T10:15:02.601Z,66.04
2023-03-05T10:17:45.265Z,62.91
2023-03-05T10:20:38.274Z,62.71
2023-03-05T10:23:16.693Z,64.49
2023-03-05T10:25:59.780Z,66.92
2023-03-05T10:28:37.564Z,65.97
2023-03-05T10:31:31.563Z,64.71
2023-03-05T10:34:12.414Z,61.58
2023-03-05T10:37:02.110Z,60.43
2023-03-05T10:39:48.729Z,54.37
2023-03-05T10:42:30.753Z,52.66
2023-03-05T10:45:14.040Z,51.00
2023-03-05T10:47:59.411Z,52.63
2023-03-05T10:50:36.431Z,49.65
2023-03-05T10:53:21.027Z,49.63
2023-03-05T10:55:50.613Z,47.89
2023-03-05T10:58:17.695Z,45.84
2023-03-05T11:01:04.275Z,46.01
2023-03-05T11:03:55.560Z,48.00
2023-03-05T11:06:34.444Z,51.56
2023-03-05T11:09:49.328Z,53.99
2023-03-05T11:12:21.849Z,55.77
2023-03-05T11:15:07.249Z,51.87
2023-03-05T11:17:37.461Z,49.31
2023-03-05T11:20:34.661Z,50.10
2023-03-05T11:23:20.918Z,48.47
2023-03-05T11:25:52.544Z,48.18
2023-03-05T11:28:32.265Z,48.37
2023-03-05T11:31:08.212Z,49.57
2023-03-05T11:33:37.499Z,48.24
2023-03-05T11:36:31.468Z,48.39
2023-03-05T11:39:08.574Z,51.09
2023-03-05T11:42:00.621Z,54.48
2023-03-05T11:44:35.374Z,55.88
2023-03-05T11:47:28.541Z,58.02
2023-03-05T11:50:25.292Z,57.23
2023-03-05T11:52:58.776Z,56.65
2023-03-05T11:55:37.565Z,55.26
2023-03-05T11:58:36.075Z,51.39
2023-03-05T12:01:07.030Z,47.97
2023-03-05T12:03:38.256Z,47.52
2023-03-05T12:06:20.142Z,48.25
2023-03-05T12:09:02.381Z,49.97
2023-03-05T12:11:41.204Z,51.86
2023-03-05T12:14:20.941Z,51.87
2023-03-05T12:17:11.058Z,49.08
2023-03-05T12:19:59.373Z,46.58
2023-03-05T12:22:39.685Z,45.57
2023-03-05T12:25:29.253Z,45.39
2023-03-05T12:33:56.627Z,49.45
2023-03-05T12:36:29.583Z,51.47
2023-03-05T12:38:59.416Z,51.85
2023-03-05T12:41:28.061Z,50.97
2023-03-05T12:44:26.630Z,50.68
2023-03-05T12:47:19.316Z,51.15
2023-03-05T12:49:47.453Z,51.06
2023-03-05T12:52:26.758Z,51.66
2023-03-05T12:55:05.071Z,53.17
2023-03-05T12:57:34.583Z,54.50
2023-03-05T13:00:25.775Z,54.56
2023-03-05T13:03:04.143Z,55.33
2023-03-05T13:05:36.963Z,55.88
2023-03-05T13:08:19.100Z,56.10
2023-03-05T13:10:55.441Z,56.07
2023-03-05T13:13:27.856Z,55.17
2023-03-05T13:15:54.925Z,55.39
2023-03-05T13:18:25.224Z,55.29
2023-03-05T13:21:15.097Z,55.17
2023-03-05T13:24:00.954Z,53.59
2023-03-05T13:26:40.469Z,52.68
2023-03-05T13:29:30.174Z,54.27
2023-03-05T13:32:00.104Z,54.04
2023-03-05T13:34:37.639Z,54.05
2023-03-05T13:37:18.602Z,51.10
2023-03-05T13:39:55.039Z,49.39
2023-03-05T13:42:34.706Z,48.83
2023-03-05T13:45:06.795Z,49.69
2023-03-05T13:51:48.431Z,51.49
2023-03-05T13:54:17.794Z,50.25
2023-03-05T14:04:35.753Z,51.82
2023-03-05T14:07:08.388Z,51.98
2023-03-05T14:09:41.163Z,52.39
2023-03-05T14:12:41.011Z,52.29
2023-03-05T14:15:25.821Z,51.68
2023-03-05T14:17:53.458Z,51.64
2023-03-05T14:20:28.734Z,52.89
2023-03-05T14:23:26.724Z,54.14
2023-03-05T14:26:11.111Z,53.61
2023-03-05T14:28:38.382Z,54.50
2023-03-05T14:31:16.462Z,54.84
2023-03-05T14:33:44.365Z,54.65
2023-03-05T14:36:15.378Z,54.17
2023-03-05T14:38:43.411Z,53.99
2023-03-05T14:41:40.896Z,52.21
2023-03-05T14:44:16.804Z,51.71
2023-03-05T14:46:43.790Z,52.17
2023-03-05T14:49:10.574Z,50.87
2023-03-05T14:51:43.088Z,50.69
2023-03-05T14:54:22.849Z,50.23
2023-03-05T14:56:50.222Z,51.90
2023-03-05T14:59:18.264Z,53.55
2023-03-05T15:01:46.531Z,54.57
2023-03-05T15:04:15.548Z,55.42
2023-03-05T15:06:45.339Z,56.59
2023-03-05T15:09:12.532Z,57.27
2023-03-05T15:11:38.959Z,57.79
2023-03-05T15:14:05.414Z,57.71
2023-03-05T15:16:32.833Z,58.74
2023-03-05T15:18:59.725Z,58.64
2023-03-05T15:21:26.178Z,58.48
2023-03-05T15:23:52.644Z,59.81
2023-03-05T15:26:19.296Z,60.07
2023-03-05T15:28:45.846Z,60.79
2023-03-05T15:31:12.491Z,60.81
2023-03-05T15:33:39.513Z,61.89
2023-03-05T15:36:06.475Z,61.86
2023-03-05T15:38:32.937Z,62.13
2023-03-05T15:41:02.221Z,61.99
2023-03-05T15:43:30.627Z,62.10
2023-03-05T15:46:00.491Z,61.73
2023-03-05T15:48:28.448Z,61.67
2023-03-05T15:50:55.253Z,61.15
2023-03-05T15:53:23.485Z,61.16
2023-03-05T15:55:52.301Z,60.79
2023-03-05T15:58:19.151Z,61.06
2023-03-05T16:00:47.582Z,60.74
2023-03-05T16:03:14.424Z,61.34
2023-03-05T16:05:44.054Z,61.59
2023-03-05T16:08:10.925Z,61.20
2023-03-05T16:10:39.728Z,61.22
2023-03-05T16:13:14.002Z,61.98
2023-03-05T16:15:41.788Z,62.22
2023-03-05T16:18:12.501Z,62.44
2023-03-05T16:20:39.085Z,62.71
2023-03-05T16:23:06.207Z,63.53
2023-03-05T16:25:33.298Z,63.39
2023-03-05T16:28:01.456Z,62.99
2023-03-05T16:30:27.922Z,63.27
2023-03-05T16:32:54.362Z,63.99
2023-03-05T16:35:20.914Z,63.94
2023-03-05T16:37:47.695Z,64.25
2023-03-05T16:40:14.452Z,64.19
2023-03-05T16:42:41.025Z,64.72
2023-03-05T16:45:08.869Z,64.91
2023-03-05T16:47:35.477Z,65.03
2023-03-05T16:50:02.057Z,64.40
2023-03-05T16:52:31.350Z,64.34
2023-03-05T16:55:01.423Z,64.99
2023-03-05T16:57:30.521Z,65.03
2023-03-05T16:59:57.491Z,65.18
2023-03-05T17:02:24.189Z,65.28
2023-03-05T17:04:50.923Z,65.63
2023-03-05T17:07:18.198Z,65.38
2023-03-05T17:09:50.403Z,65.74
2023-03-05T17:12:16.819Z,65.89
2023-03-05T17:14:43.304Z,65.84
2023-03-05T17:17:10.130Z,65.92
2023-03-05T17:19:36.908Z,65.41
2023-03-05T17:22:04.130Z,65.58
2023-03-05T17:24:32.863Z,65.91
2023-03-05T17:27:00.423Z,65.10
2023-03-05T17:29:27.106Z,65.02
2023-03-05T17:31:53.809Z,65.49
2023-03-05T17:34:33.144Z,65.21
2023-03-05T17:37:00.643Z,66.07
2023-03-05T17:39:27.116Z,65.64
2023-03-05T17:41:53.568Z,66.08
2023-03-05T17:44:20.039Z,65.33
2023-03-05T17:46:46.520Z,65.41
2023-03-05T17:49:12.976Z,65.55
2023-03-05T17:51:39.390Z,66.25
2023-03-05T17:54:05.851Z,66.29
2023-03-05T17:56:32.908Z,65.52
2023-03-05T17:59:00.237Z,66.17
2023-03-05T18:01:32.384Z,66.61
2023-03-05T18:03:59.293Z,66.23
2023-03-05T18:06:26.164Z,66.67
2023-03-05T18:08:52.740Z,67.17
2023-03-05T18:11:19.735Z,67.37
2023-03-05T18:13:46.243Z,66.88
2023-03-05T18:16:16.884Z,67.61
2023-03-05T18:18:44.497Z,67.58
2023-03-05T18:21:10.971Z,67.68
2023-03-05T18:23:37.492Z,67.71
2023-03-05T18:26:04.039Z,67.99
2023-03-05T18:28:30.462Z,68.36
2023-03-05T18:30:57.613Z,67.87
2023-03-05T18:33:25.722Z,68.45
2023-03-05T18:35:53.910Z,68.17
2023-03-05T18:38:25.827Z,68.61
2023-03-05T18:40:54.953Z,68.21
2023-03-05T18:43:25.465Z,68.07
2023-03-05T18:45:54.218Z,68.89
2023-03-05T18:48:23.388Z,69.10
2023-03-05T18:50:51.916Z,69.46
2023-03-05T18:53:19.646Z,69.78
2023-03-05T18:55:46.343Z,69.96
2023-03-05T18:58:15.937Z,70.18
2023-03-05T19:00:44.845Z,70.07
2023-03-05T19:03:12.316Z,70.44
2023-03-05T19:05:40.205Z,70.44
2023-03-05T19:08:07.870Z,70.43
2023-03-05T19:10:34.612Z,70.51
2023-03-05T19:13:36.570Z,70.74
2023-03-05T19:16:12.398Z,70.59
2023-03-05T19:19:08.448Z,71.42
2023-03-05T19:21:35.121Z,71.65
2023-03-05T19:24:01.650Z,71.17
2023-03-05T19:26:28.214Z,71.34
2023-03-05T19:28:55.298Z,71.79
2023-03-05T19:31:22.826Z,71.58
2023-03-05T19:33:49.396Z,71.58
2023-03-05T19:36:21.294Z,72.04
2023-03-05T19:38:48.645Z,71.74
2023-03-05T19:41:17.889Z,71.85
2023-03-05T19:43:44.476Z,72.39
2023-03-05T19:46:10.958Z,72.28
2023-03-05T19:48:38.304Z,72.40
2023-03-05T19:51:10.625Z,72.76
2023-03-05T19:53:38.206Z,72.96
2023-03-05T19:56:06.311Z,72.46
2023-03-05T19:58:33.735Z,72.68
2023-03-05T20:01:29.759Z,72.27
2023-03-05T20:03:58.149Z,72.29
2023-03-05T20:06:26.380Z,72.15
2023-03-05T20:08:52.984Z,72.51
2023-03-05T20:11:23.295Z,73.35
2023-03-05T20:13:50.729Z,72.63
2023-03-05T20:16:21.974Z,73.12
2023-03-05T20:18:52.645Z,73.04
2023-03-05T20:21:23.456Z,73.13
2023-03-05T20:23:55.253Z,73.32
2023-03-05T20:26:23.437Z,73.87
2023-03-05T20:28:50.059Z,73.95
2023-03-05T20:31:21.412Z,74.15
2023-03-05T20:33:48.381Z,74.43
2023-03-05T20:36:14.916Z,74.22
2023-03-05T20:38:41.880Z,74.35
2023-03-05T20:41:11.423Z,74.42
2023-03-05T20:43:41.526Z,74.08
2023-03-05T20:46:15.578Z,74.95
2023-03-05T20:48:42.235Z,74.79
2023-03-05T20:51:14.599Z,75.07
2023-03-05T20:53:41.374Z,75.15
2023-03-05T20:56:08.124Z,75.33
2023-03-05T20:58:34.725Z,74.94
2023-03-05T21:01:01.166Z,75.07
2023-03-05T21:03:27.752Z,75.08
2023-03-05T21:05:56.483Z,74.91
2023-03-05T21:08:23.591Z,74.88
2023-03-05T21:10:50.715Z,74.84
2023-03-05T21:13:17.153Z,74.55
2023-03-05T21:15:43.668Z,74.59
2023-03-05T21:18:10.314Z,75.10
2023-03-05T21:20:36.834Z,74.68
2023-03-05T21:23:03.951Z,74.45
2023-03-05T21:25:32.295Z,74.61
2023-03-05T21:28:15.598Z,74.39
2023-03-05T21:30:43.580Z,75.39
2023-03-05T21:33:12.432Z,74.86
2023-03-05T21:35:39.507Z,75.07
2023-03-05T21:38:07.372Z,74.69
2023-03-05T21:40:36.042Z,75.17
2023-03-05T21:43:03.769Z,74.93
2023-03-05T21:45:30.847Z,74.88
2023-03-05T21:47:59.079Z,75.37
2023-03-05T21:50:26.018Z,75.37
2023-03-05T21:52:53.205Z,75.34
2023-03-05T21:55:22.644Z,75.74
2023-03-05T21:57:49.107Z,75.81
2023-03-05T22:00:18.180Z,75.70
2023-03-05T22:02:46.100Z,76.05
2023-03-05T22:05:15.351Z,75.45
2023-03-05T22:07:43.171Z,76.17
2023-03-05T22:10:18.401Z,75.82
2023-03-05T22:13:10.429Z,75.95
2023-03-05T22:15:48.766Z,76.38
2023-03-05T22:18:18.961Z,75.71
2023-03-05T22:20:46.542Z,76.01
2023-03-05T22:23:14.007Z,76.06
2023-03-05T22:25:40.867Z,76.55
2023-03-05T22:28:10.556Z,76.09
2023-03-05T22:30:42.911Z,76.60
2023-03-05T22:33:09.659Z,76.70
2023-03-05T22:35:39.214Z,76.50
2023-03-05T22:38:06.033Z,76.51
2023-03-05T22:40:32.449Z,76.98
2023-03-05T22:42:58.889Z,77.22
2023-03-05T22:45:25.333Z,77.27
2023-03-05T22:47:51.821Z,77.33
2023-03-05T22:50:18.568Z,76.99
2023-03-05T22:52:45.154Z,77.15
2023-03-05T22:55:13.961Z,77.70
2023-03-05T22:57:41.369Z,77.56
2023-03-05T23:00:13.496Z,76.77
2023-03-05T23:02:44.323Z,77.17
2023-03-05T23:05:11.895Z,77.16
2023-03-05T23:07:40.714Z,77.16
2023-03-05T23:10:11.184Z,77.13
2023-03-05T23:12:41.177Z,77.27
2023-03-05T23:15:10.324Z,77.49
2023-03-05T23:17:36.870Z,77.71
2023-03-05T23:20:05.101Z,77.56
2023-03-05T23:22:31.577Z,77.72
2023-03-05T23:24:58.049Z,77.70
2023-03-05T23:27:24.448Z,78.11
2023-03-05T23:30:16.567Z,78.32
2023-03-05T23:32:45.397Z,78.97
2023-03-05T23:35:14.193Z,79.25
2023-03-05T23:37:41.174Z,79.67
2023-03-05T23:40:13.198Z,79.99
2023-03-05T23:42:39.748Z,80.10
2023-03-05T23:45:07.464Z,80.27
2023-03-05T23:47:35.910Z,80.27
2023-03-05T23:50:08.198Z,80.43
2023-03-05T23:52:34.717Z,80.84
2023-03-05T23:55:01.202Z,81.17
2023-03-05T23:57:27.691Z,80.64
2023-03-05T23:59:54.119Z,81.44
